Schedule Details


Flight Number: CTN412
Departure: Kastela (LDSP) at 14:45
Arrival: Frankfurt/main (EDDF) at 16:35
Route: ZDA DCT BUSET DCT VEKEN DCT ERKIR UQ863 TEKSI/N0450F300 UQ863 ETASA T163 PSA

Weather Information
LDSP 242100Z VRB02KT CAVOK 26/15 Q1017 TEMPO 05008KT
EDDF 242050Z 07005KT CAVOK 26/15 Q1019 NOSIG
Schedule Frequency

Route Map